sensor_id;sensor_type;location;lat;lon;timestamp;temperature;humidity
71173;DHT22;58875;51.996;4.504;2022-09-06T00:02:14;19.66;79.75
71173;DHT22;58875;51.996;4.504;2022-09-06T00:04:40;19.60;79.48
71173;DHT22;58875;51.996;4.504;2022-09-06T00:07:05;19.52;79.64
71173;DHT22;58875;51.996;4.504;2022-09-06T00:09:31;19.40;80.22
71173;DHT22;58875;51.996;4.504;2022-09-06T00:11:56;19.30;80.43
71173;DHT22;58875;51.996;4.504;2022-09-06T00:14:22;19.32;79.62
71173;DHT22;58875;51.996;4.504;2022-09-06T00:16:47;19.39;79.34
71173;DHT22;58875;51.996;4.504;2022-09-06T00:19:13;19.42;78.61
71173;DHT22;58875;51.996;4.504;2022-09-06T00:21:38;19.46;78.58
71173;DHT22;58875;51.996;4.504;2022-09-06T00:24:04;19.56;78.04
71173;DHT22;58875;51.996;4.504;2022-09-06T00:26:30;19.63;77.82
71173;DHT22;58875;51.996;4.504;2022-09-06T00:28:56;19.67;77.24
71173;DHT22;58875;51.996;4.504;2022-09-06T00:31:25;19.73;76.37
71173;DHT22;58875;51.996;4.504;2022-09-06T00:33:50;19.81;76.20
71173;DHT22;58875;51.996;4.504;2022-09-06T00:36:17;19.90;75.49
71173;DHT22;58875;51.996;4.504;2022-09-06T00:38:43;19.88;75.40
71173;DHT22;58875;51.996;4.504;2022-09-06T00:41:12;19.88;76.22
71173;DHT22;58875;51.996;4.504;2022-09-06T00:43:38;19.93;76.12
71173;DHT22;58875;51.996;4.504;2022-09-06T00:46:07;19.91;76.29
71173;DHT22;58875;51.996;4.504;2022-09-06T00:48:36;19.90;76.01
71173;DHT22;58875;51.996;4.504;2022-09-06T00:51:07;19.84;76.58
71173;DHT22;58875;51.996;4.504;2022-09-06T00:53:32;19.78;77.14
71173;DHT22;58875;51.996;4.504;2022-09-06T00:55:58;19.80;77.17
71173;DHT22;58875;51.996;4.504;2022-09-06T00:58:25;19.77;77.76
71173;DHT22;58875;51.996;4.504;2022-09-06T01:00:52;19.75;78.23
71173;DHT22;58875;51.996;4.504;2022-09-06T01:03:21;19.78;77.68
71173;DHT22;58875;51.996;4.504;2022-09-06T01:11:56;19.73;77.93
71173;DHT22;58875;51.996;4.504;2022-09-06T01:22:58;19.66;76.38
71173;DHT22;58875;51.996;4.504;2022-09-06T01:28:35;19.71;76.29
71173;DHT22;58875;51.996;4.504;2022-09-06T01:31:06;19.70;75.72
71173;DHT22;58875;51.996;4.504;2022-09-06T01:33:45;19.71;75.45
71173;DHT22;58875;51.996;4.504;2022-09-06T01:36:17;19.67;75.11
71173;DHT22;58875;51.996;4.504;2022-09-06T01:38:44;19.64;75.52
71173;DHT22;58875;51.996;4.504;2022-09-06T01:41:09;19.64;75.66
71173;DHT22;58875;51.996;4.504;2022-09-06T01:43:41;19.66;75.79
71173;DHT22;58875;51.996;4.504;2022-09-06T01:46:23;19.67;75.73
71173;DHT22;58875;51.996;4.504;2022-09-06T02:02:04;19.56;77.07
71173;DHT22;58875;51.996;4.504;2022-09-06T02:04:44;19.52;77.79
71173;DHT22;58875;51.996;4.504;2022-09-06T02:07:32;19.45;77.61
71173;DHT22;58875;51.996;4.504;2022-09-06T02:12:52;19.36;78.34
71173;DHT22;58875;51.996;4.504;2022-09-06T02:15:26;19.30;78.90
71173;DHT22;58875;51.996;4.504;2022-09-06T02:18:02;19.20;79.13
71173;DHT22;58875;51.996;4.504;2022-09-06T02:20:32;19.19;79.52
71173;DHT22;58875;51.996;4.504;2022-09-06T02:23:03;19.18;80.23
71173;DHT22;58875;51.996;4.504;2022-09-06T02:25:37;19.15;80.34
71173;DHT22;58875;51.996;4.504;2022-09-06T02:28:05;19.13;80.79
71173;DHT22;58875;51.996;4.504;2022-09-06T02:30:39;19.11;81.03
71173;DHT22;58875;51.996;4.504;2022-09-06T02:33:20;19.08;81.26
71173;DHT22;58875;51.996;4.504;2022-09-06T02:35:51;19.08;81.19
71173;DHT22;58875;51.996;4.504;2022-09-06T02:38:20;19.05;81.21
71173;DHT22;58875;51.996;4.504;2022-09-06T02:40:48;19.03;81.75
71173;DHT22;58875;51.996;4.504;2022-09-06T02:43:14;19.01;81.61
71173;DHT22;58875;51.996;4.504;2022-09-06T02:45:40;19.03;81.64
71173;DHT22;58875;51.996;4.504;2022-09-06T02:48:05;18.98;81.64
71173;DHT22;58875;51.996;4.504;2022-09-06T02:50:31;18.94;81.62
71173;DHT22;58875;51.996;4.504;2022-09-06T02:53:01;18.95;81.74
71173;DHT22;58875;51.996;4.504;2022-09-06T02:55:27;18.91;81.81
71173;DHT22;58875;51.996;4.504;2022-09-06T02:57:53;18.92;81.97
71173;DHT22;58875;51.996;4.504;2022-09-06T03:00:18;18.91;81.96
71173;DHT22;58875;51.996;4.504;2022-09-06T03:02:44;18.84;82.15
71173;DHT22;58875;51.996;4.504;2022-09-06T03:05:09;18.82;82.28
71173;DHT22;58875;51.996;4.504;2022-09-06T03:07:35;18.85;82.26
71173;DHT22;58875;51.996;4.504;2022-09-06T03:10:00;18.87;82.40
71173;DHT22;58875;51.996;4.504;2022-09-06T03:12:26;18.95;82.40
71173;DHT22;58875;51.996;4.504;2022-09-06T03:14:52;18.98;82.52
71173;DHT22;58875;51.996;4.504;2022-09-06T03:17:17;18.98;82.70
71173;DHT22;58875;51.996;4.504;2022-09-06T03:19:43;19.01;82.43
71173;DHT22;58875;51.996;4.504;2022-09-06T03:22:08;19.08;82.37
71173;DHT22;58875;51.996;4.504;2022-09-06T03:24:34;19.16;81.97
71173;DHT22;58875;51.996;4.504;2022-09-06T03:27:00;19.19;81.24
71173;DHT22;58875;51.996;4.504;2022-09-06T03:29:25;19.18;81.02
71173;DHT22;58875;51.996;4.504;2022-09-06T03:31:50;19.23;80.14
71173;DHT22;58875;51.996;4.504;2022-09-06T03:34:16;19.22;80.00
71173;DHT22;58875;51.996;4.504;2022-09-06T03:36:42;19.29;79.65
71173;DHT22;58875;51.996;4.504;2022-09-06T03:39:07;19.26;79.35
71173;DHT22;58875;51.996;4.504;2022-09-06T03:41:33;19.32;79.28
71173;DHT22;58875;51.996;4.504;2022-09-06T03:43:58;19.34;79.36
71173;DHT22;58875;51.996;4.504;2022-09-06T03:46:24;19.42;79.58
71173;DHT22;58875;51.996;4.504;2022-09-06T03:48:50;19.42;79.36
71173;DHT22;58875;51.996;4.504;2022-09-06T03:51:15;19.40;79.29
71173;DHT22;58875;51.996;4.504;2022-09-06T03:53:41;19.42;79.50
71173;DHT22;58875;51.996;4.504;2022-09-06T03:56:06;19.42;80.05
71173;DHT22;58875;51.996;4.504;2022-09-06T03:58:32;19.43;80.11
71173;DHT22;58875;51.996;4.504;2022-09-06T04:01:07;19.39;80.04
71173;DHT22;58875;51.996;4.504;2022-09-06T04:03:34;19.43;80.08
71173;DHT22;58875;51.996;4.504;2022-09-06T04:06:01;19.40;80.38
71173;DHT22;58875;51.996;4.504;2022-09-06T04:08:27;19.43;80.70
71173;DHT22;58875;51.996;4.504;2022-09-06T04:10:54;19.46;80.41
71173;DHT22;58875;51.996;4.504;2022-09-06T04:13:20;19.42;80.78
71173;DHT22;58875;51.996;4.504;2022-09-06T04:15:46;19.42;80.67
71173;DHT22;58875;51.996;4.504;2022-09-06T04:18:13;19.42;80.58
71173;DHT22;58875;51.996;4.504;2022-09-06T04:20:38;19.42;81.02
71173;DHT22;58875;51.996;4.504;2022-09-06T04:23:04;19.37;81.04
71173;DHT22;58875;51.996;4.504;2022-09-06T04:25:30;19.43;81.18
71173;DHT22;58875;51.996;4.504;2022-09-06T04:27:56;19.39;80.83
71173;DHT22;58875;51.996;4.504;2022-09-06T04:30:21;19.40;81.16
71173;DHT22;58875;51.996;4.504;2022-09-06T04:32:46;19.45;81.38
71173;DHT22;58875;51.996;4.504;2022-09-06T04:35:12;19.47;81.34
71173;DHT22;58875;51.996;4.504;2022-09-06T04:37:38;19.46;81.32
71173;DHT22;58875;51.996;4.504;2022-09-06T04:40:05;19.46;81.26
71173;DHT22;58875;51.996;4.504;2022-09-06T04:42:31;19.45;80.68
71173;DHT22;58875;51.996;4.504;2022-09-06T04:44:56;19.39;80.61
71173;DHT22;58875;51.996;4.504;2022-09-06T04:47:22;19.37;80.70
71173;DHT22;58875;51.996;4.504;2022-09-06T04:49:49;19.37;80.91
71173;DHT22;58875;51.996;4.504;2022-09-06T04:52:15;19.43;80.47
71173;DHT22;58875;51.996;4.504;2022-09-06T04:54:42;19.34;80.76
71173;DHT22;58875;51.996;4.504;2022-09-06T04:57:08;19.32;80.86
71173;DHT22;58875;51.996;4.504;2022-09-06T04:59:33;19.23;80.76
71173;DHT22;58875;51.996;4.504;2022-09-06T05:01:59;19.19;81.08
71173;DHT22;58875;51.996;4.504;2022-09-06T05:04:25;19.13;81.26
71173;DHT22;58875;51.996;4.504;2022-09-06T05:09:26;19.12;81.30
71173;DHT22;58875;51.996;4.504;2022-09-06T05:11:52;19.09;81.32
71173;DHT22;58875;51.996;4.504;2022-09-06T05:14:17;19.06;81.57
71173;DHT22;58875;51.996;4.504;2022-09-06T05:16:43;19.06;81.69
71173;DHT22;58875;51.996;4.504;2022-09-06T05:19:09;19.11;81.61
71173;DHT22;58875;51.996;4.504;2022-09-06T05:21:35;19.09;81.53
71173;DHT22;58875;51.996;4.504;2022-09-06T05:24:00;19.09;81.43
71173;DHT22;58875;51.996;4.504;2022-09-06T05:26:26;19.03;81.56
71173;DHT22;58875;51.996;4.504;2022-09-06T05:28:51;19.06;81.64
71173;DHT22;58875;51.996;4.504;2022-09-06T05:31:29;19.11;81.64
71173;DHT22;58875;51.996;4.504;2022-09-06T05:33:55;19.11;81.86
71173;DHT22;58875;51.996;4.504;2022-09-06T05:36:22;19.13;81.86
71173;DHT22;58875;51.996;4.504;2022-09-06T05:38:52;19.12;81.85
71173;DHT22;58875;51.996;4.504;2022-09-06T05:41:18;19.13;81.78
71173;DHT22;58875;51.996;4.504;2022-09-06T05:43:44;19.23;81.63
71173;DHT22;58875;51.996;4.504;2022-09-06T05:46:10;19.23;81.57
71173;DHT22;58875;51.996;4.504;2022-09-06T05:48:36;19.16;81.80
71173;DHT22;58875;51.996;4.504;2022-09-06T05:51:04;19.18;81.89
71173;DHT22;58875;51.996;4.504;2022-09-06T05:53:35;19.25;81.38
71173;DHT22;58875;51.996;4.504;2022-09-06T05:56:02;19.20;81.48
71173;DHT22;58875;51.996;4.504;2022-09-06T05:58:27;19.16;81.78
71173;DHT22;58875;51.996;4.504;2022-09-06T06:01:22;19.15;82.08
71173;DHT22;58875;51.996;4.504;2022-09-06T06:03:58;19.23;81.76
71173;DHT22;58875;51.996;4.504;2022-09-06T06:06:27;19.22;81.71
71173;DHT22;58875;51.996;4.504;2022-09-06T06:08:52;19.26;81.32
71173;DHT22;58875;51.996;4.504;2022-09-06T06:11:18;19.27;81.45
71173;DHT22;58875;51.996;4.504;2022-09-06T06:13:45;19.29;81.53
71173;DHT22;58875;51.996;4.504;2022-09-06T06:16:13;19.36;81.47
71173;DHT22;58875;51.996;4.504;2022-09-06T06:18:39;19.36;81.51
71173;DHT22;58875;51.996;4.504;2022-09-06T06:23:35;19.43;81.43
71173;DHT22;58875;51.996;4.504;2022-09-06T06:26:00;19.43;81.32
71173;DHT22;58875;51.996;4.504;2022-09-06T06:28:26;19.45;81.38
71173;DHT22;58875;51.996;4.504;2022-09-06T06:30:51;19.52;81.20
71173;DHT22;58875;51.996;4.504;2022-09-06T06:33:18;19.59;80.91
71173;DHT22;58875;51.996;4.504;2022-09-06T06:36:05;19.64;80.76
71173;DHT22;58875;51.996;4.504;2022-09-06T06:38:34;19.69;80.77
71173;DHT22;58875;51.996;4.504;2022-09-06T06:41:00;19.74;79.95
71173;DHT22;58875;51.996;4.504;2022-09-06T06:43:27;19.80;79.88
71173;DHT22;58875;51.996;4.504;2022-09-06T06:45:53;19.85;79.89
71173;DHT22;58875;51.996;4.504;2022-09-06T06:48:19;19.97;79.56
71173;DHT22;58875;51.996;4.504;2022-09-06T06:50:45;20.03;79.63
71173;DHT22;58875;51.996;4.504;2022-09-06T06:53:11;20.13;79.75
71173;DHT22;58875;51.996;4.504;2022-09-06T06:55:37;20.14;78.91
71173;DHT22;58875;51.996;4.504;2022-09-06T06:58:02;20.26;78.95
71173;DHT22;58875;51.996;4.504;2022-09-06T07:00:29;20.45;79.08
71173;DHT22;58875;51.996;4.504;2022-09-06T07:02:54;20.65;77.82
71173;DHT22;58875;51.996;4.504;2022-09-06T07:05:24;20.73;77.01
71173;DHT22;58875;51.996;4.504;2022-09-06T07:07:49;20.86;76.87
71173;DHT22;58875;51.996;4.504;2022-09-06T07:10:15;20.99;75.72
71173;DHT22;58875;51.996;4.504;2022-09-06T07:12:40;20.99;75.58
71173;DHT22;58875;51.996;4.504;2022-09-06T07:17:31;21.91;74.31
71173;DHT22;58875;51.996;4.504;2022-09-06T07:22:24;21.74;73.02
71173;DHT22;58875;51.996;4.504;2022-09-06T07:24:49;21.58;73.68
71173;DHT22;58875;51.996;4.504;2022-09-06T07:27:15;21.68;73.62
71173;DHT22;58875;51.996;4.504;2022-09-06T07:29:41;21.96;72.47
71173;DHT22;58875;51.996;4.504;2022-09-06T07:32:06;21.89;72.48
71173;DHT22;58875;51.996;4.504;2022-09-06T07:34:32;21.85;71.32
71173;DHT22;58875;51.996;4.504;2022-09-06T07:37:02;21.81;71.73
71173;DHT22;58875;51.996;4.504;2022-09-06T07:39:28;22.02;72.00
71173;DHT22;58875;51.996;4.504;2022-09-06T07:41:54;22.01;72.23
71173;DHT22;58875;51.996;4.504;2022-09-06T07:44:20;21.95;71.34
71173;DHT22;58875;51.996;4.504;2022-09-06T07:46:45;21.91;71.81
71173;DHT22;58875;51.996;4.504;2022-09-06T07:49:11;21.94;71.13
71173;DHT22;58875;51.996;4.504;2022-09-06T07:51:37;21.88;70.97
71173;DHT22;58875;51.996;4.504;2022-09-06T07:54:02;21.98;72.07
71173;DHT22;58875;51.996;4.504;2022-09-06T07:56:29;22.16;71.64
71173;DHT22;58875;51.996;4.504;2022-09-06T07:58:55;22.26;71.60
71173;DHT22;58875;51.996;4.504;2022-09-06T08:01:30;22.66;71.11
71173;DHT22;58875;51.996;4.504;2022-09-06T08:03:58;22.95;71.23
71173;DHT22;58875;51.996;4.504;2022-09-06T08:06:26;23.28;69.19
71173;DHT22;58875;51.996;4.504;2022-09-06T08:08:52;23.46;68.39
71173;DHT22;58875;51.996;4.504;2022-09-06T08:11:18;23.44;68.48
71173;DHT22;58875;51.996;4.504;2022-09-06T08:13:48;23.38;69.13
71173;DHT22;58875;51.996;4.504;2022-09-06T08:16:14;23.49;67.83
71173;DHT22;58875;51.996;4.504;2022-09-06T08:18:41;23.39;67.54
71173;DHT22;58875;51.996;4.504;2022-09-06T08:21:09;23.44;67.28
71173;DHT22;58875;51.996;4.504;2022-09-06T08:23:36;23.66;68.13
71173;DHT22;58875;51.996;4.504;2022-09-06T08:26:02;23.67;65.45
71173;DHT22;58875;51.996;4.504;2022-09-06T08:28:28;23.45;67.09
71173;DHT22;58875;51.996;4.504;2022-09-06T08:30:53;23.49;66.11
71173;DHT22;58875;51.996;4.504;2022-09-06T08:33:19;23.59;65.64
71173;DHT22;58875;51.996;4.504;2022-09-06T08:35:56;23.46;64.56
71173;DHT22;58875;51.996;4.504;2022-09-06T08:38:22;23.48;65.84
71173;DHT22;58875;51.996;4.504;2022-09-06T08:40:49;23.54;65.44
71173;DHT22;58875;51.996;4.504;2022-09-06T08:43:18;23.66;65.46
71173;DHT22;58875;51.996;4.504;2022-09-06T08:45:49;23.63;64.57
71173;DHT22;58875;51.996;4.504;2022-09-06T08:48:17;23.61;63.75
71173;DHT22;58875;51.996;4.504;2022-09-06T08:50:54;23.52;64.29
71173;DHT22;58875;51.996;4.504;2022-09-06T08:53:25;23.70;65.82
71173;DHT22;58875;51.996;4.504;2022-09-06T08:55:58;23.85;63.47
71173;DHT22;58875;51.996;4.504;2022-09-06T09:01:23;24.27;63.42
71173;DHT22;58875;51.996;4.504;2022-09-06T09:03:55;24.23;62.91
71173;DHT22;58875;51.996;4.504;2022-09-06T09:06:25;24.03;64.20
71173;DHT22;58875;51.996;4.504;2022-09-06T09:11:22;24.20;63.25
71173;DHT22;58875;51.996;4.504;2022-09-06T09:16:27;24.18;63.36
71173;DHT22;58875;51.996;4.504;2022-09-06T09:19:02;24.20;63.34
71173;DHT22;58875;51.996;4.504;2022-09-06T09:21:32;24.30;63.67
71173;DHT22;58875;51.996;4.504;2022-09-06T09:24:06;24.31;63.98
71173;DHT22;58875;51.996;4.504;2022-09-06T09:29:10;24.33;63.72
71173;DHT22;58875;51.996;4.504;2022-09-06T09:31:40;24.14;63.79
71173;DHT22;58875;51.996;4.504;2022-09-06T09:34:12;24.00;64.35
71173;DHT22;58875;51.996;4.504;2022-09-06T09:36:38;24.12;64.05
71173;DHT22;58875;51.996;4.504;2022-09-06T09:39:11;24.00;64.72
71173;DHT22;58875;51.996;4.504;2022-09-06T09:41:40;23.83;64.34
71173;DHT22;58875;51.996;4.504;2022-09-06T09:44:16;23.65;65.00
71173;DHT22;58875;51.996;4.504;2022-09-06T09:46:43;23.76;65.77
71173;DHT22;58875;51.996;4.504;2022-09-06T09:54:07;24.13;65.62
71173;DHT22;58875;51.996;4.504;2022-09-06T10:01:57;25.09;63.91
71173;DHT22;58875;51.996;4.504;2022-09-06T10:04:37;25.39;60.66
71173;DHT22;58875;51.996;4.504;2022-09-06T10:07:17;25.37;60.78
71173;DHT22;58875;51.996;4.504;2022-09-06T10:10:12;25.08;61.03
71173;DHT22;58875;51.996;4.504;2022-09-06T10:12:41;25.12;61.40
71173;DHT22;58875;51.996;4.504;2022-09-06T10:15:30;24.99;60.86
71173;DHT22;58875;51.996;4.504;2022-09-06T10:17:53;24.96;63.10
71173;DHT22;58875;51.996;4.504;2022-09-06T10:23:32;24.82;63.70
71173;DHT22;58875;51.996;4.504;2022-09-06T10:28:37;25.04;63.65
71173;DHT22;58875;51.996;4.504;2022-09-06T10:37:55;25.74;62.13
71173;DHT22;58875;51.996;4.504;2022-09-06T10:40:10;25.56;61.83
71173;DHT22;58875;51.996;4.504;2022-09-06T10:42:50;25.67;61.45
71173;DHT22;58875;51.996;4.504;2022-09-06T10:48:08;25.06;62.86
71173;DHT22;58875;51.996;4.504;2022-09-06T10:50:57;24.88;63.41
71173;DHT22;58875;51.996;4.504;2022-09-06T10:56:35;25.06;64.53
71173;DHT22;58875;51.996;4.504;2022-09-06T11:04:47;25.30;62.93
71173;DHT22;58875;51.996;4.504;2022-09-06T11:09:46;25.33;62.98
71173;DHT22;58875;51.996;4.504;2022-09-06T11:14:42;25.51;62.63
71173;DHT22;58875;51.996;4.504;2022-09-06T11:17:22;25.66;61.52
71173;DHT22;58875;51.996;4.504;2022-09-06T11:20:05;25.60;61.67
71173;DHT22;58875;51.996;4.504;2022-09-06T11:28:14;25.09;61.63
71173;DHT22;58875;51.996;4.504;2022-09-06T11:30:52;25.20;62.72
71173;DHT22;58875;51.996;4.504;2022-09-06T11:33:24;25.59;61.42
71173;DHT22;58875;51.996;4.504;2022-09-06T11:35:51;25.76;60.18
71173;DHT22;58875;51.996;4.504;2022-09-06T11:38:25;25.83;61.02
71173;DHT22;58875;51.996;4.504;2022-09-06T11:41:02;25.90;60.98
71173;DHT22;58875;51.996;4.504;2022-09-06T11:43:47;25.96;60.43
71173;DHT22;58875;51.996;4.504;2022-09-06T11:49:07;26.27;59.90
71173;DHT22;58875;51.996;4.504;2022-09-06T11:51:38;26.31;59.17
71173;DHT22;58875;51.996;4.504;2022-09-06T11:57:07;25.57;61.81
71173;DHT22;58875;51.996;4.504;2022-09-06T11:59:55;25.88;59.62
71173;DHT22;58875;51.996;4.504;2022-09-06T12:02:35;26.45;58.18
71173;DHT22;58875;51.996;4.504;2022-09-06T12:07:34;26.24;57.56
71173;DHT22;58875;51.996;4.504;2022-09-06T12:10:02;26.37;57.46
71173;DHT22;58875;51.996;4.504;2022-09-06T12:12:49;26.46;57.24
71173;DHT22;58875;51.996;4.504;2022-09-06T12:16:10;26.45;57.95
71173;DHT22;58875;51.996;4.504;2022-09-06T12:24:00;26.49;59.26
71173;DHT22;58875;51.996;4.504;2022-09-06T12:26:51;26.62;55.76
71173;DHT22;58875;51.996;4.504;2022-09-06T12:29:24;26.56;56.60
71173;DHT22;58875;51.996;4.504;2022-09-06T12:31:53;26.59;52.36
71173;DHT22;58875;51.996;4.504;2022-09-06T12:34:29;26.66;51.85
71173;DHT22;58875;51.996;4.504;2022-09-06T12:37:00;26.92;53.50
71173;DHT22;58875;51.996;4.504;2022-09-06T12:39:26;27.10;52.20
71173;DHT22;58875;51.996;4.504;2022-09-06T12:41:59;26.99;52.83
71173;DHT22;58875;51.996;4.504;2022-09-06T12:44:35;26.76;51.10
71173;DHT22;58875;51.996;4.504;2022-09-06T12:47:24;26.71;54.08
71173;DHT22;58875;51.996;4.504;2022-09-06T12:50:19;26.86;53.17
71173;DHT22;58875;51.996;4.504;2022-09-06T12:52:47;27.07;51.59
71173;DHT22;58875;51.996;4.504;2022-09-06T12:57:52;26.89;49.59
71173;DHT22;58875;51.996;4.504;2022-09-06T13:00:20;26.87;51.75
71173;DHT22;58875;51.996;4.504;2022-09-06T13:02:51;26.85;50.87
71173;DHT22;58875;51.996;4.504;2022-09-06T13:05:19;26.95;52.58
71173;DHT22;58875;51.996;4.504;2022-09-06T13:07:49;27.04;50.82
71173;DHT22;58875;51.996;4.504;2022-09-06T13:10:21;26.83;50.74
71173;DHT22;58875;51.996;4.504;2022-09-06T13:12:50;26.60;51.20
71173;DHT22;58875;51.996;4.504;2022-09-06T13:15:24;26.79;52.08
71173;DHT22;58875;51.996;4.504;2022-09-06T13:17:53;26.85;51.76
71173;DHT22;58875;51.996;4.504;2022-09-06T13:20:29;26.90;50.55
71173;DHT22;58875;51.996;4.504;2022-09-06T13:23:07;27.06;50.57
71173;DHT22;58875;51.996;4.504;2022-09-06T13:25:45;26.89;52.43
71173;DHT22;58875;51.996;4.504;2022-09-06T13:28:23;26.85;53.29
71173;DHT22;58875;51.996;4.504;2022-09-06T13:31:08;27.00;51.10
71173;DHT22;58875;51.996;4.504;2022-09-06T13:33:36;26.71;51.86
71173;DHT22;58875;51.996;4.504;2022-09-06T13:38:44;26.20;53.39
71173;DHT22;58875;51.996;4.504;2022-09-06T13:41:36;26.24;51.94
71173;DHT22;58875;51.996;4.504;2022-09-06T13:46:40;26.00;54.01
71173;DHT22;58875;51.996;4.504;2022-09-06T13:49:11;26.00;53.50
71173;DHT22;58875;51.996;4.504;2022-09-06T13:51:38;25.90;53.41
71173;DHT22;58875;51.996;4.504;2022-09-06T13:54:09;25.91;53.77
71173;DHT22;58875;51.996;4.504;2022-09-06T13:56:36;26.22;54.48
71173;DHT22;58875;51.996;4.504;2022-09-06T13:59:02;26.35;54.80
71173;DHT22;58875;51.996;4.504;2022-09-06T14:01:28;26.31;54.21
71173;DHT22;58875;51.996;4.504;2022-09-06T14:03:54;26.29;51.85
71173;DHT22;58875;51.996;4.504;2022-09-06T14:06:19;26.48;52.08
71173;DHT22;58875;51.996;4.504;2022-09-06T14:08:45;26.73;50.95
71173;DHT22;58875;51.996;4.504;2022-09-06T14:11:10;27.11;50.57
71173;DHT22;58875;51.996;4.504;2022-09-06T14:13:37;27.22;49.80
71173;DHT22;58875;51.996;4.504;2022-09-06T14:16:03;27.11;52.57
71173;DHT22;58875;51.996;4.504;2022-09-06T14:18:32;26.90;48.74
71173;DHT22;58875;51.996;4.504;2022-09-06T14:20:58;26.99;49.78
71173;DHT22;58875;51.996;4.504;2022-09-06T14:23:24;27.17;47.56
71173;DHT22;58875;51.996;4.504;2022-09-06T14:25:55;27.23;45.72
71173;DHT22;58875;51.996;4.504;2022-09-06T14:28:25;27.38;41.28
71173;DHT22;58875;51.996;4.504;2022-09-06T14:30:54;27.29;45.57
71173;DHT22;58875;51.996;4.504;2022-09-06T14:33:20;27.50;45.39
71173;DHT22;58875;51.996;4.504;2022-09-06T14:35:46;27.64;46.81
71173;DHT22;58875;51.996;4.504;2022-09-06T14:38:12;27.72;44.12
71173;DHT22;58875;51.996;4.504;2022-09-06T14:40:39;27.68;43.65
71173;DHT22;58875;51.996;4.504;2022-09-06T14:48:00;27.02;44.81
71173;DHT22;58875;51.996;4.504;2022-09-06T14:50:26;26.78;45.91
71173;DHT22;58875;51.996;4.504;2022-09-06T14:52:52;26.73;48.96
71173;DHT22;58875;51.996;4.504;2022-09-06T14:55:18;26.72;48.67
71173;DHT22;58875;51.996;4.504;2022-09-06T14:57:43;26.49;48.15
71173;DHT22;58875;51.996;4.504;2022-09-06T15:00:10;26.42;50.48
71173;DHT22;58875;51.996;4.504;2022-09-06T15:02:36;26.42;48.97
71173;DHT22;58875;51.996;4.504;2022-09-06T15:05:02;26.45;48.39
71173;DHT22;58875;51.996;4.504;2022-09-06T15:07:29;26.45;48.16
71173;DHT22;58875;51.996;4.504;2022-09-06T15:09:58;26.69;47.92
71173;DHT22;58875;51.996;4.504;2022-09-06T15:12:24;27.13;47.64
71173;DHT22;58875;51.996;4.504;2022-09-06T15:14:50;27.29;47.56
71173;DHT22;58875;51.996;4.504;2022-09-06T15:17:15;27.31;46.87
71173;DHT22;58875;51.996;4.504;2022-09-06T15:19:41;27.24;46.64
71173;DHT22;58875;51.996;4.504;2022-09-06T15:22:07;26.82;47.67
71173;DHT22;58875;51.996;4.504;2022-09-06T15:24:33;26.71;46.23
71173;DHT22;58875;51.996;4.504;2022-09-06T15:26:58;26.75;47.93
71173;DHT22;58875;51.996;4.504;2022-09-06T15:29:26;26.63;47.45
71173;DHT22;58875;51.996;4.504;2022-09-06T15:31:52;26.63;47.33
71173;DHT22;58875;51.996;4.504;2022-09-06T15:34:20;26.60;50.04
71173;DHT22;58875;51.996;4.504;2022-09-06T15:36:48;26.75;49.34
71173;DHT22;58875;51.996;4.504;2022-09-06T15:39:13;26.97;48.66
71173;DHT22;58875;51.996;4.504;2022-09-06T15:41:39;27.24;47.56
71173;DHT22;58875;51.996;4.504;2022-09-06T15:44:11;27.41;45.74
71173;DHT22;58875;51.996;4.504;2022-09-06T15:49:25;27.16;46.60
71173;DHT22;58875;51.996;4.504;2022-09-06T15:51:55;26.99;47.21
71173;DHT22;58875;51.996;4.504;2022-09-06T15:54:21;26.89;47.52
71173;DHT22;58875;51.996;4.504;2022-09-06T15:57:12;26.68;48.03
71173;DHT22;58875;51.996;4.504;2022-09-06T15:59:39;26.63;47.93
71173;DHT22;58875;51.996;4.504;2022-09-06T16:02:08;26.63;48.50
71173;DHT22;58875;51.996;4.504;2022-09-06T16:04:34;26.62;48.99
71173;DHT22;58875;51.996;4.504;2022-09-06T16:06:59;26.62;49.34
71173;DHT22;58875;51.996;4.504;2022-09-06T16:09:25;26.60;49.17
71173;DHT22;58875;51.996;4.504;2022-09-06T16:11:51;26.56;50.58
71173;DHT22;58875;51.996;4.504;2022-09-06T16:14:17;26.48;49.15
71173;DHT22;58875;51.996;4.504;2022-09-06T16:16:43;26.37;48.65
71173;DHT22;58875;51.996;4.504;2022-09-06T16:19:11;26.31;49.40
71173;DHT22;58875;51.996;4.504;2022-09-06T16:21:39;26.24;50.21
71173;DHT22;58875;51.996;4.504;2022-09-06T16:24:11;26.11;50.00
71173;DHT22;58875;51.996;4.504;2022-09-06T16:26:42;25.98;49.64
71173;DHT22;58875;51.996;4.504;2022-09-06T16:29:11;25.87;51.11
71173;DHT22;58875;51.996;4.504;2022-09-06T16:31:37;25.83;50.50
71173;DHT22;58875;51.996;4.504;2022-09-06T16:34:02;25.80;50.38
71173;DHT22;58875;51.996;4.504;2022-09-06T16:36:28;25.86;50.82
71173;DHT22;58875;51.996;4.504;2022-09-06T16:38:54;25.81;50.54
71173;DHT22;58875;51.996;4.504;2022-09-06T16:41:26;25.67;50.60
71173;DHT22;58875;51.996;4.504;2022-09-06T16:43:52;25.60;52.26
71173;DHT22;58875;51.996;4.504;2022-09-06T16:46:20;25.60;51.47
71173;DHT22;58875;51.996;4.504;2022-09-06T16:48:51;25.66;51.61
71173;DHT22;58875;51.996;4.504;2022-09-06T16:51:18;25.64;51.49
71173;DHT22;58875;51.996;4.504;2022-09-06T16:53:46;25.69;50.93
71173;DHT22;58875;51.996;4.504;2022-09-06T16:56:14;25.74;51.62
71173;DHT22;58875;51.996;4.504;2022-09-06T16:58:42;25.74;51.15
71173;DHT22;58875;51.996;4.504;2022-09-06T17:01:08;25.71;51.70
71173;DHT22;58875;51.996;4.504;2022-09-06T17:03:35;25.71;52.49
71173;DHT22;58875;51.996;4.504;2022-09-06T17:06:05;25.78;52.12
71173;DHT22;58875;51.996;4.504;2022-09-06T17:08:32;25.84;52.44
71173;DHT22;58875;51.996;4.504;2022-09-06T17:11:02;25.78;52.04
71173;DHT22;58875;51.996;4.504;2022-09-06T17:13:29;25.74;52.48
71173;DHT22;58875;51.996;4.504;2022-09-06T17:15:55;25.76;52.66
71173;DHT22;58875;51.996;4.504;2022-09-06T17:18:40;25.74;52.87
71173;DHT22;58875;51.996;4.504;2022-09-06T17:21:06;25.66;53.46
71173;DHT22;58875;51.996;4.504;2022-09-06T17:23:33;25.60;53.67
71173;DHT22;58875;51.996;4.504;2022-09-06T17:25:59;25.50;54.37
71173;DHT22;58875;51.996;4.504;2022-09-06T17:28:24;25.49;54.79
71173;DHT22;58875;51.996;4.504;2022-09-06T17:30:50;25.46;54.87
71173;DHT22;58875;51.996;4.504;2022-09-06T17:33:18;25.37;54.32
71173;DHT22;58875;51.996;4.504;2022-09-06T17:35:46;25.37;54.08
71173;DHT22;58875;51.996;4.504;2022-09-06T17:38:13;25.33;53.98
71173;DHT22;58875;51.996;4.504;2022-09-06T17:40:39;25.29;54.73
71173;DHT22;58875;51.996;4.504;2022-09-06T17:43:04;25.26;54.17
71173;DHT22;58875;51.996;4.504;2022-09-06T17:45:41;25.20;54.75
71173;DHT22;58875;51.996;4.504;2022-09-06T17:48:09;25.20;54.96
71173;DHT22;58875;51.996;4.504;2022-09-06T17:50:35;25.15;55.32